sensor_id;sensor_type;location;lat;lon;timestamp;pressure;altitude;pressure_sealevel;temperature
58307;BMP280;44116;50.884;4.768;2023-05-07T00:00:43;100970.0;;;13.6
58307;BMP280;44116;50.884;4.768;2023-05-07T00:02:42;100970.0;;;13.6
58307;BMP280;44116;50.884;4.768;2023-05-07T00:04:42;100970.0;;;13.5
58307;BMP280;44116;50.884;4.768;2023-05-07T00:06:42;100970.0;;;13.5
58307;BMP280;44116;50.884;4.768;2023-05-07T00:08:42;100970.0;;;13.4
58307;BMP280;44116;50.884;4.768;2023-05-07T00:10:42;100970.0;;;13.3
58307;BMP280;44116;50.884;4.768;2023-05-07T00:12:42;100960.0;;;13.3
58307;BMP280;44116;50.884;4.768;2023-05-07T00:14:42;100960.0;;;13.3
58307;BMP280;44116;50.884;4.768;2023-05-07T00:16:42;100950.0;;;13.4
58307;BMP280;44116;50.884;4.768;2023-05-07T00:18:41;100950.0;;;13.2
58307;BMP280;44116;50.884;4.768;2023-05-07T00:22:41;100950.0;;;13.5
58307;BMP280;44116;50.884;4.768;2023-05-07T00:24:41;100950.0;;;13.6
58307;BMP280;44116;50.884;4.768;2023-05-07T00:26:41;100950.0;;;13.3
58307;BMP280;44116;50.884;4.768;2023-05-07T00:28:41;100950.0;;;13.3
58307;BMP280;44116;50.884;4.768;2023-05-07T00:30:40;100940.0;;;13.2
58307;BMP280;44116;50.884;4.768;2023-05-07T00:32:40;100940.0;;;13.4
58307;BMP280;44116;50.884;4.768;2023-05-07T00:34:40;100940.0;;;13.4
58307;BMP280;44116;50.884;4.768;2023-05-07T00:36:40;100940.0;;;13.3
58307;BMP280;44116;50.884;4.768;2023-05-07T00:42:40;100930.0;;;13.3
58307;BMP280;44116;50.884;4.768;2023-05-07T00:44:40;100930.0;;;13.3
58307;BMP280;44116;50.884;4.768;2023-05-07T00:48:39;100920.0;;;13.3
58307;BMP280;44116;50.884;4.768;2023-05-07T00:50:39;100920.0;;;13.3
58307;BMP280;44116;50.884;4.768;2023-05-07T00:52:39;100920.0;;;13.2
58307;BMP280;44116;50.884;4.768;2023-05-07T00:54:39;100910.0;;;13.2
58307;BMP280;44116;50.884;4.768;2023-05-07T00:56:39;100910.0;;;13.1
58307;BMP280;44116;50.884;4.768;2023-05-07T00:58:38;100910.0;;;13.3
58307;BMP280;44116;50.884;4.768;2023-05-07T01:00:52;100910.0;;;13.2
58307;BMP280;44116;50.884;4.768;2023-05-07T01:02:38;100900.0;;;13.2
58307;BMP280;44116;50.884;4.768;2023-05-07T01:04:38;100900.0;;;13.1
58307;BMP280;44116;50.884;4.768;2023-05-07T01:06:38;100900.0;;;13.1
58307;BMP280;44116;50.884;4.768;2023-05-07T01:08:38;100900.0;;;13.2
58307;BMP280;44116;50.884;4.768;2023-05-07T01:10:37;100900.0;;;13.2
58307;BMP280;44116;50.884;4.768;2023-05-07T01:14:37;100900.0;;;13.3
58307;BMP280;44116;50.884;4.768;2023-05-07T01:16:37;100900.0;;;13.4
58307;BMP280;44116;50.884;4.768;2023-05-07T01:18:37;100890.0;;;13.3
58307;BMP280;44116;50.884;4.768;2023-05-07T01:20:37;100890.0;;;13.2
58307;BMP280;44116;50.884;4.768;2023-05-07T01:22:37;100890.0;;;13.3
58307;BMP280;44116;50.884;4.768;2023-05-07T01:24:37;100880.0;;;13.3
58307;BMP280;44116;50.884;4.768;2023-05-07T01:26:36;100880.0;;;13.1
58307;BMP280;44116;50.884;4.768;2023-05-07T01:30:36;100880.0;;;13.1
58307;BMP280;44116;50.884;4.768;2023-05-07T01:34:36;100880.0;;;13.0
58307;BMP280;44116;50.884;4.768;2023-05-07T01:36:36;100880.0;;;13.1
58307;BMP280;44116;50.884;4.768;2023-05-07T01:38:36;100880.0;;;13.2
58307;BMP280;44116;50.884;4.768;2023-05-07T01:40:35;100880.0;;;13.1
58307;BMP280;44116;50.884;4.768;2023-05-07T01:42:35;100880.0;;;13.1
58307;BMP280;44116;50.884;4.768;2023-05-07T01:44:35;100880.0;;;13.2
58307;BMP280;44116;50.884;4.768;2023-05-07T01:46:35;100890.0;;;13.3
58307;BMP280;44116;50.884;4.768;2023-05-07T01:48:34;100890.0;;;13.3
58307;BMP280;44116;50.884;4.768;2023-05-07T01:50:34;100890.0;;;13.2
58307;BMP280;44116;50.884;4.768;2023-05-07T01:56:34;100890.0;;;13.2
58307;BMP280;44116;50.884;4.768;2023-05-07T01:58:34;100890.0;;;13.1
58307;BMP280;44116;50.884;4.768;2023-05-07T02:00:34;100880.0;;;13.2
58307;BMP280;44116;50.884;4.768;2023-05-07T02:02:33;100880.0;;;13.2
58307;BMP280;44116;50.884;4.768;2023-05-07T02:04:33;100880.0;;;13.2
58307;BMP280;44116;50.884;4.768;2023-05-07T02:06:33;100890.0;;;13.3
58307;BMP280;44116;50.884;4.768;2023-05-07T02:08:33;100900.0;;;13.3
58307;BMP280;44116;50.884;4.768;2023-05-07T02:10:33;100900.0;;;13.2
58307;BMP280;44116;50.884;4.768;2023-05-07T02:12:33;100900.0;;;13.1
58307;BMP280;44116;50.884;4.768;2023-05-07T02:14:32;100900.0;;;13.1
58307;BMP280;44116;50.884;4.768;2023-05-07T02:16:32;100890.0;;;13.1
58307;BMP280;44116;50.884;4.768;2023-05-07T02:20:32;100900.0;;;13.2
58307;BMP280;44116;50.884;4.768;2023-05-07T02:22:32;100890.0;;;13.2
58307;BMP280;44116;50.884;4.768;2023-05-07T02:24:32;100900.0;;;13.2
58307;BMP280;44116;50.884;4.768;2023-05-07T02:26:32;100890.0;;;13.1
58307;BMP280;44116;50.884;4.768;2023-05-07T02:28:31;100890.0;;;13.1
58307;BMP280;44116;50.884;4.768;2023-05-07T02:30:31;100890.0;;;13.2
58307;BMP280;44116;50.884;4.768;2023-05-07T02:32:31;100890.0;;;13.2
58307;BMP280;44116;50.884;4.768;2023-05-07T02:34:31;100890.0;;;13.2
58307;BMP280;44116;50.884;4.768;2023-05-07T02:36:31;100890.0;;;13.2
58307;BMP280;44116;50.884;4.768;2023-05-07T02:38:31;100890.0;;;13.3
58307;BMP280;44116;50.884;4.768;2023-05-07T02:40:30;100890.0;;;13.2
58307;BMP280;44116;50.884;4.768;2023-05-07T02:42:30;100890.0;;;13.1
58307;BMP280;44116;50.884;4.768;2023-05-07T02:44:30;100890.0;;;13.1
58307;BMP280;44116;50.884;4.768;2023-05-07T02:46:30;100890.0;;;13.2
58307;BMP280;44116;50.884;4.768;2023-05-07T02:48:30;100890.0;;;13.1
58307;BMP280;44116;50.884;4.768;2023-05-07T02:50:30;100880.0;;;13.1
58307;BMP280;44116;50.884;4.768;2023-05-07T02:52:30;100880.0;;;13.0
58307;BMP280;44116;50.884;4.768;2023-05-07T02:54:29;100870.0;;;13.0
58307;BMP280;44116;50.884;4.768;2023-05-07T02:56:29;100870.0;;;12.9
58307;BMP280;44116;50.884;4.768;2023-05-07T02:58:29;100860.0;;;12.9
58307;BMP280;44116;50.884;4.768;2023-05-07T03:00:29;100860.0;;;13.0
58307;BMP280;44116;50.884;4.768;2023-05-07T03:02:29;100870.0;;;13.1
58307;BMP280;44116;50.884;4.768;2023-05-07T03:04:28;100870.0;;;13.1
58307;BMP280;44116;50.884;4.768;2023-05-07T03:06:28;100870.0;;;13.2
58307;BMP280;44116;50.884;4.768;2023-05-07T03:08:28;100880.0;;;13.1
58307;BMP280;44116;50.884;4.768;2023-05-07T03:10:28;100870.0;;;12.9
58307;BMP280;44116;50.884;4.768;2023-05-07T03:12:28;100870.0;;;13.0
58307;BMP280;44116;50.884;4.768;2023-05-07T03:14:28;100870.0;;;13.0
58307;BMP280;44116;50.884;4.768;2023-05-07T03:16:27;100880.0;;;13.1
58307;BMP280;44116;50.884;4.768;2023-05-07T03:18:27;100880.0;;;13.1
58307;BMP280;44116;50.884;4.768;2023-05-07T03:20:27;100880.0;;;13.0
58307;BMP280;44116;50.884;4.768;2023-05-07T03:22:27;100890.0;;;13.0
58307;BMP280;44116;50.884;4.768;2023-05-07T03:24:27;100890.0;;;13.1
58307;BMP280;44116;50.884;4.768;2023-05-07T03:26:27;100890.0;;;13.2
58307;BMP280;44116;50.884;4.768;2023-05-07T03:28:27;100890.0;;;13.2
58307;BMP280;44116;50.884;4.768;2023-05-07T03:30:27;100900.0;;;13.2
58307;BMP280;44116;50.884;4.768;2023-05-07T03:32:26;100890.0;;;13.2
58307;BMP280;44116;50.884;4.768;2023-05-07T03:34:26;100900.0;;;13.1
58307;BMP280;44116;50.884;4.768;2023-05-07T03:36:26;100900.0;;;13.1
58307;BMP280;44116;50.884;4.768;2023-05-07T03:38:26;100900.0;;;13.0
58307;BMP280;44116;50.884;4.768;2023-05-07T03:40:26;100900.0;;;13.0
58307;BMP280;44116;50.884;4.768;2023-05-07T03:42:25;100890.0;;;13.0
58307;BMP280;44116;50.884;4.768;2023-05-07T03:44:25;100890.0;;;13.1
58307;BMP280;44116;50.884;4.768;2023-05-07T03:46:25;100900.0;;;13.1
58307;BMP280;44116;50.884;4.768;2023-05-07T03:48:25;100890.0;;;13.1
58307;BMP280;44116;50.884;4.768;2023-05-07T03:50:25;100890.0;;;13.1
58307;BMP280;44116;50.884;4.768;2023-05-07T03:52:25;100890.0;;;13.1
58307;BMP280;44116;50.884;4.768;2023-05-07T03:54:24;100890.0;;;13.1
58307;BMP280;44116;50.884;4.768;2023-05-07T03:56:24;100910.0;;;13.2
58307;BMP280;44116;50.884;4.768;2023-05-07T03:58:24;100900.0;;;13.1
58307;BMP280;44116;50.884;4.768;2023-05-07T04:00:24;100910.0;;;12.9
58307;BMP280;44116;50.884;4.768;2023-05-07T04:02:24;100900.0;;;12.9
58307;BMP280;44116;50.884;4.768;2023-05-07T04:04:24;100900.0;;;12.8
58307;BMP280;44116;50.884;4.768;2023-05-07T04:06:24;100900.0;;;12.9
58307;BMP280;44116;50.884;4.768;2023-05-07T04:10:23;100900.0;;;13.1
58307;BMP280;44116;50.884;4.768;2023-05-07T04:14:23;100900.0;;;13.0
58307;BMP280;44116;50.884;4.768;2023-05-07T04:16:23;100890.0;;;13.0
58307;BMP280;44116;50.884;4.768;2023-05-07T04:18:23;100890.0;;;13.0
58307;BMP280;44116;50.884;4.768;2023-05-07T04:20:22;100890.0;;;13.1
58307;BMP280;44116;50.884;4.768;2023-05-07T04:22:22;100890.0;;;13.1
58307;BMP280;44116;50.884;4.768;2023-05-07T04:24:22;100890.0;;;13.0
58307;BMP280;44116;50.884;4.768;2023-05-07T04:28:22;100880.0;;;12.9
58307;BMP280;44116;50.884;4.768;2023-05-07T04:30:22;100880.0;;;12.8
58307;BMP280;44116;50.884;4.768;2023-05-07T04:34:21;100870.0;;;13.0
58307;BMP280;44116;50.884;4.768;2023-05-07T04:36:21;100870.0;;;12.9
58307;BMP280;44116;50.884;4.768;2023-05-07T04:38:21;100870.0;;;13.0
58307;BMP280;44116;50.884;4.768;2023-05-07T04:40:21;100870.0;;;12.8
58307;BMP280;44116;50.884;4.768;2023-05-07T04:44:21;100870.0;;;12.7
58307;BMP280;44116;50.884;4.768;2023-05-07T04:46:21;100870.0;;;12.8
58307;BMP280;44116;50.884;4.768;2023-05-07T04:48:20;100870.0;;;12.8
58307;BMP280;44116;50.884;4.768;2023-05-07T04:52:20;100870.0;;;12.8
58307;BMP280;44116;50.884;4.768;2023-05-07T04:54:20;100870.0;;;12.9
58307;BMP280;44116;50.884;4.768;2023-05-07T04:56:20;100880.0;;;12.9
58307;BMP280;44116;50.884;4.768;2023-05-07T04:58:20;100880.0;;;12.9
58307;BMP280;44116;50.884;4.768;2023-05-07T05:00:19;100880.0;;;13.0
58307;BMP280;44116;50.884;4.768;2023-05-07T05:02:19;100880.0;;;13.0
58307;BMP280;44116;50.884;4.768;2023-05-07T05:04:19;100890.0;;;12.9
58307;BMP280;44116;50.884;4.768;2023-05-07T05:06:19;100890.0;;;12.9
58307;BMP280;44116;50.884;4.768;2023-05-07T05:08:19;100890.0;;;13.0
58307;BMP280;44116;50.884;4.768;2023-05-07T05:14:18;100890.0;;;13.0
58307;BMP280;44116;50.884;4.768;2023-05-07T05:16:18;100900.0;;;13.1
58307;BMP280;44116;50.884;4.768;2023-05-07T05:18:18;100890.0;;;13.1
58307;BMP280;44116;50.884;4.768;2023-05-07T05:20:18;100900.0;;;13.3
58307;BMP280;44116;50.884;4.768;2023-05-07T05:22:18;100900.0;;;13.3
58307;BMP280;44116;50.884;4.768;2023-05-07T05:24:18;100900.0;;;13.4
58307;BMP280;44116;50.884;4.768;2023-05-07T05:26:18;100900.0;;;13.4
58307;BMP280;44116;50.884;4.768;2023-05-07T05:28:17;100900.0;;;13.4
58307;BMP280;44116;50.884;4.768;2023-05-07T05:30:17;100900.0;;;13.6
58307;BMP280;44116;50.884;4.768;2023-05-07T05:32:17;100910.0;;;13.6
58307;BMP280;44116;50.884;4.768;2023-05-07T05:34:17;100910.0;;;13.6
58307;BMP280;44116;50.884;4.768;2023-05-07T05:36:17;100910.0;;;13.6
58307;BMP280;44116;50.884;4.768;2023-05-07T05:38:17;100910.0;;;13.5
58307;BMP280;44116;50.884;4.768;2023-05-07T05:40:17;100910.0;;;13.5
58307;BMP280;44116;50.884;4.768;2023-05-07T05:42:16;100910.0;;;13.5
58307;BMP280;44116;50.884;4.768;2023-05-07T05:44:16;100910.0;;;13.4
58307;BMP280;44116;50.884;4.768;2023-05-07T05:46:18;100910.0;;;13.5
58307;BMP280;44116;50.884;4.768;2023-05-07T05:48:16;100910.0;;;13.6
58307;BMP280;44116;50.884;4.768;2023-05-07T05:50:16;100920.0;;;13.7
58307;BMP280;44116;50.884;4.768;2023-05-07T05:52:16;100920.0;;;13.7
58307;BMP280;44116;50.884;4.768;2023-05-07T05:54:16;100920.0;;;13.7
58307;BMP280;44116;50.884;4.768;2023-05-07T05:56:15;100930.0;;;13.8
58307;BMP280;44116;50.884;4.768;2023-05-07T05:58:15;100930.0;;;13.9
58307;BMP280;44116;50.884;4.768;2023-05-07T06:00:15;100930.0;;;13.9
58307;BMP280;44116;50.884;4.768;2023-05-07T06:02:15;100930.0;;;14.0
58307;BMP280;44116;50.884;4.768;2023-05-07T06:04:15;100940.0;;;14.0
58307;BMP280;44116;50.884;4.768;2023-05-07T06:08:15;100940.0;;;14.1
58307;BMP280;44116;50.884;4.768;2023-05-07T06:10:14;100950.0;;;14.2
58307;BMP280;44116;50.884;4.768;2023-05-07T06:12:14;100950.0;;;14.2
58307;BMP280;44116;50.884;4.768;2023-05-07T06:14:14;100950.0;;;14.3
58307;BMP280;44116;50.884;4.768;2023-05-07T06:18:14;100950.0;;;14.4
58307;BMP280;44116;50.884;4.768;2023-05-07T06:20:14;100950.0;;;14.4
58307;BMP280;44116;50.884;4.768;2023-05-07T06:22:14;100960.0;;;14.4
58307;BMP280;44116;50.884;4.768;2023-05-07T06:24:13;100960.0;;;14.4
58307;BMP280;44116;50.884;4.768;2023-05-07T06:26:13;100960.0;;;14.5
58307;BMP280;44116;50.884;4.768;2023-05-07T06:28:13;100970.0;;;14.5
58307;BMP280;44116;50.884;4.768;2023-05-07T06:30:13;100970.0;;;14.7
58307;BMP280;44116;50.884;4.768;2023-05-07T06:32:15;100960.0;;;14.8
58307;BMP280;44116;50.884;4.768;2023-05-07T06:34:13;100970.0;;;14.8
58307;BMP280;44116;50.884;4.768;2023-05-07T06:36:13;100970.0;;;14.8
58307;BMP280;44116;50.884;4.768;2023-05-07T06:38:12;100980.0;;;14.9
58307;BMP280;44116;50.884;4.768;2023-05-07T06:40:12;100980.0;;;15.0
58307;BMP280;44116;50.884;4.768;2023-05-07T06:42:12;100990.0;;;15.1
58307;BMP280;44116;50.884;4.768;2023-05-07T06:44:12;100990.0;;;15.1
58307;BMP280;44116;50.884;4.768;2023-05-07T06:46:12;101000.0;;;15.1
58307;BMP280;44116;50.884;4.768;2023-05-07T06:48:12;101000.0;;;15.1
58307;BMP280;44116;50.884;4.768;2023-05-07T06:50:12;101010.0;;;15.1
58307;BMP280;44116;50.884;4.768;2023-05-07T06:52:12;101020.0;;;15.1
58307;BMP280;44116;50.884;4.768;2023-05-07T06:54:11;101020.0;;;15.0
58307;BMP280;44116;50.884;4.768;2023-05-07T06:56:11;101020.0;;;15.0
58307;BMP280;44116;50.884;4.768;2023-05-07T06:58:11;101020.0;;;14.9
58307;BMP280;44116;50.884;4.768;2023-05-07T07:00:12;101020.0;;;14.9
58307;BMP280;44116;50.884;4.768;2023-05-07T07:02:11;101020.0;;;14.9
58307;BMP280;44116;50.884;4.768;2023-05-07T07:04:11;101020.0;;;15.0
58307;BMP280;44116;50.884;4.768;2023-05-07T07:06:11;101030.0;;;15.0
58307;BMP280;44116;50.884;4.768;2023-05-07T07:08:11;101030.0;;;15.0
58307;BMP280;44116;50.884;4.768;2023-05-07T07:10:10;101030.0;;;15.0
58307;BMP280;44116;50.884;4.768;2023-05-07T07:12:10;101030.0;;;15.1
58307;BMP280;44116;50.884;4.768;2023-05-07T07:14:10;101030.0;;;15.1
58307;BMP280;44116;50.884;4.768;2023-05-07T07:16:10;101030.0;;;15.1
58307;BMP280;44116;50.884;4.768;2023-05-07T07:18:10;101040.0;;;15.1
58307;BMP280;44116;50.884;4.768;2023-05-07T07:20:10;101040.0;;;15.1
58307;BMP280;44116;50.884;4.768;2023-05-07T07:22:10;101040.0;;;15.1
58307;BMP280;44116;50.884;4.768;2023-05-07T07:24:09;101040.0;;;15.2
58307;BMP280;44116;50.884;4.768;2023-05-07T07:28:09;101050.0;;;15.2
58307;BMP280;44116;50.884;4.768;2023-05-07T07:30:09;101050.0;;;15.3
58307;BMP280;44116;50.884;4.768;2023-05-07T07:32:09;101050.0;;;15.3
58307;BMP280;44116;50.884;4.768;2023-05-07T07:36:09;101050.0;;;15.4
58307;BMP280;44116;50.884;4.768;2023-05-07T07:38:09;101040.0;;;15.3
58307;BMP280;44116;50.884;4.768;2023-05-07T07:40:09;101050.0;;;15.4
58307;BMP280;44116;50.884;4.768;2023-05-07T07:44:08;101060.0;;;15.5
58307;BMP280;44116;50.884;4.768;2023-05-07T07:46:08;101060.0;;;15.4
58307;BMP280;44116;50.884;4.768;2023-05-07T07:48:08;101060.0;;;15.4
58307;BMP280;44116;50.884;4.768;2023-05-07T07:50:08;101060.0;;;15.4
58307;BMP280;44116;50.884;4.768;2023-05-07T07:52:08;101060.0;;;15.4
58307;BMP280;44116;50.884;4.768;2023-05-07T07:54:08;101060.0;;;15.5
58307;BMP280;44116;50.884;4.768;2023-05-07T07:58:07;101060.0;;;15.5
58307;BMP280;44116;50.884;4.768;2023-05-07T08:00:08;101070.0;;;15.5
58307;BMP280;44116;50.884;4.768;2023-05-07T08:02:07;101060.0;;;15.5
58307;BMP280;44116;50.884;4.768;2023-05-07T08:04:07;101060.0;;;15.5
58307;BMP280;44116;50.884;4.768;2023-05-07T08:06:07;101060.0;;;15.6
58307;BMP280;44116;50.884;4.768;2023-05-07T08:08:07;101060.0;;;15.6
58307;BMP280;44116;50.884;4.768;2023-05-07T08:10:07;101060.0;;;15.6
58307;BMP280;44116;50.884;4.768;2023-05-07T08:12:07;101070.0;;;15.7
58307;BMP280;44116;50.884;4.768;2023-05-07T08:14:06;101060.0;;;15.7
58307;BMP280;44116;50.884;4.768;2023-05-07T08:16:07;101070.0;;;15.8
58307;BMP280;44116;50.884;4.768;2023-05-07T08:18:06;101070.0;;;15.8
58307;BMP280;44116;50.884;4.768;2023-05-07T08:20:06;101070.0;;;15.8
58307;BMP280;44116;50.884;4.768;2023-05-07T08:22:06;101070.0;;;15.7
58307;BMP280;44116;50.884;4.768;2023-05-07T08:24:06;101080.0;;;15.9
58307;BMP280;44116;50.884;4.768;2023-05-07T08:26:07;101080.0;;;15.9
58307;BMP280;44116;50.884;4.768;2023-05-07T08:28:06;101080.0;;;15.9
58307;BMP280;44116;50.884;4.768;2023-05-07T08:32:05;101090.0;;;16.1
58307;BMP280;44116;50.884;4.768;2023-05-07T08:34:05;101090.0;;;16.1
58307;BMP280;44116;50.884;4.768;2023-05-07T08:36:05;101100.0;;;16.0
58307;BMP280;44116;50.884;4.768;2023-05-07T08:38:05;101090.0;;;16.0
58307;BMP280;44116;50.884;4.768;2023-05-07T08:40:05;101100.0;;;16.1
58307;BMP280;44116;50.884;4.768;2023-05-07T08:42:05;101100.0;;;16.1
58307;BMP280;44116;50.884;4.768;2023-05-07T08:44:05;101100.0;;;16.0
58307;BMP280;44116;50.884;4.768;2023-05-07T08:46:04;101100.0;;;16.1
58307;BMP280;44116;50.884;4.768;2023-05-07T08:48:05;101110.0;;;16.1
58307;BMP280;44116;50.884;4.768;2023-05-07T08:52:04;101110.0;;;16.1
58307;BMP280;44116;50.884;4.768;2023-05-07T08:54:04;101110.0;;;16.2
58307;BMP280;44116;50.884;4.768;2023-05-07T08:56:04;101110.0;;;16.1
58307;BMP280;44116;50.884;4.768;2023-05-07T08:58:04;101110.0;;;16.2
58307;BMP280;44116;50.884;4.768;2023-05-07T09:00:04;101110.0;;;16.2
58307;BMP280;44116;50.884;4.768;2023-05-07T09:02:04;101110.0;;;16.3
58307;BMP280;44116;50.884;4.768;2023-05-07T09:04:04;101120.0;;;16.2
58307;BMP280;44116;50.884;4.768;2023-05-07T09:06:04;101120.0;;;16.2
58307;BMP280;44116;50.884;4.768;2023-05-07T09:12:03;101120.0;;;16.3
58307;BMP280;44116;50.884;4.768;2023-05-07T09:14:03;101120.0;;;16.2
58307;BMP280;44116;50.884;4.768;2023-05-07T09:16:10;101120.0;;;16.3
58307;BMP280;44116;50.884;4.768;2023-05-07T09:22:03;101130.0;;;16.3
58307;BMP280;44116;50.884;4.768;2023-05-07T09:24:03;101130.0;;;16.2
58307;BMP280;44116;50.884;4.768;2023-05-07T09:26:02;101140.0;;;16.2
58307;BMP280;44116;50.884;4.768;2023-05-07T09:28:03;101130.0;;;16.1
58307;BMP280;44116;50.884;4.768;2023-05-07T09:34:02;101130.0;;;16.2
58307;BMP280;44116;50.884;4.768;2023-05-07T09:36:02;101120.0;;;16.2
58307;BMP280;44116;50.884;4.768;2023-05-07T09:38:02;101130.0;;;16.1
58307;BMP280;44116;50.884;4.768;2023-05-07T09:40:02;101130.0;;;16.1
58307;BMP280;44116;50.884;4.768;2023-05-07T09:42:01;101130.0;;;16.2
58307;BMP280;44116;50.884;4.768;2023-05-07T09:44:01;101130.0;;;16.1
58307;BMP280;44116;50.884;4.768;2023-05-07T09:46:02;101130.0;;;16.1
58307;BMP280;44116;50.884;4.768;2023-05-07T09:48:01;101130.0;;;16.0
58307;BMP280;44116;50.884;4.768;2023-05-07T09:50:01;101130.0;;;16.1
58307;BMP280;44116;50.884;4.768;2023-05-07T09:52:02;101130.0;;;16.0
58307;BMP280;44116;50.884;4.768;2023-05-07T09:54:01;101130.0;;;16.1
58307;BMP280;44116;50.884;4.768;2023-05-07T09:56:01;101130.0;;;16.1
58307;BMP280;44116;50.884;4.768;2023-05-07T10:02:00;101130.0;;;16.1
58307;BMP280;44116;50.884;4.768;2023-05-07T10:04:01;101130.0;;;16.2
58307;BMP280;44116;50.884;4.768;2023-05-07T10:06:00;101130.0;;;16.2
58307;BMP280;44116;50.884;4.768;2023-05-07T10:10:00;101130.0;;;16.3
58307;BMP280;44116;50.884;4.768;2023-05-07T10:12:00;101140.0;;;16.3
58307;BMP280;44116;50.884;4.768;2023-05-07T10:14:00;101130.0;;;16.2
58307;BMP280;44116;50.884;4.768;2023-05-07T10:16:00;101130.0;;;16.2
58307;BMP280;44116;50.884;4.768;2023-05-07T10:18:00;101140.0;;;16.2
58307;BMP280;44116;50.884;4.768;2023-05-07T10:20:00;101130.0;;;16.2
58307;BMP280;44116;50.884;4.768;2023-05-07T10:22:01;101140.0;;;16.2
58307;BMP280;44116;50.884;4.768;2023-05-07T10:25:59;101140.0;;;16.2
58307;BMP280;44116;50.884;4.768;2023-05-07T10:28:00;101140.0;;;16.3
58307;BMP280;44116;50.884;4.768;2023-05-07T10:30:00;101140.0;;;16.3
58307;BMP280;44116;50.884;4.768;2023-05-07T10:32:01;101140.0;;;16.3
58307;BMP280;44116;50.884;4.768;2023-05-07T10:33:59;101140.0;;;16.3
58307;BMP280;44116;50.884;4.768;2023-05-07T10:35:59;101140.0;;;16.3
58307;BMP280;44116;50.884;4.768;2023-05-07T10:37:59;101150.0;;;16.3
58307;BMP280;44116;50.884;4.768;2023-05-07T10:39:59;101150.0;;;16.2
58307;BMP280;44116;50.884;4.768;2023-05-07T10:42:07;101150.0;;;16.4
58307;BMP280;44116;50.884;4.768;2023-05-07T10:43:59;101150.0;;;16.3
58307;BMP280;44116;50.884;4.768;2023-05-07T10:48:06;101150.0;;;16.5
58307;BMP280;44116;50.884;4.768;2023-05-07T10:57:58;101150.0;;;16.5
58307;BMP280;44116;50.884;4.768;2023-05-07T10:59:58;101150.0;;;16.6
58307;BMP280;44116;50.884;4.768;2023-05-07T11:01:58;101150.0;;;16.6
58307;BMP280;44116;50.884;4.768;2023-05-07T11:07:58;101160.0;;;16.7
58307;BMP280;44116;50.884;4.768;2023-05-07T11:09:59;101150.0;;;16.7
58307;BMP280;44116;50.884;4.768;2023-05-07T11:11:57;101150.0;;;16.8
58307;BMP280;44116;50.884;4.768;2023-05-07T11:13:57;101150.0;;;16.8
58307;BMP280;44116;50.884;4.768;2023-05-07T11:17:58;101150.0;;;16.8
58307;BMP280;44116;50.884;4.768;2023-05-07T11:21:57;101160.0;;;17.0
58307;BMP280;44116;50.884;4.768;2023-05-07T11:23:58;101160.0;;;16.8
58307;BMP280;44116;50.884;4.768;2023-05-07T11:25:58;101170.0;;;16.9
58307;BMP280;44116;50.884;4.768;2023-05-07T11:28:03;101170.0;;;16.9
58307;BMP280;44116;50.884;4.768;2023-05-07T11:29:57;101170.0;;;17.0
58307;BMP280;44116;50.884;4.768;2023-05-07T11:31:57;101170.0;;;17.0
58307;BMP280;44116;50.884;4.768;2023-05-07T11:33:56;101180.0;;;16.9
58307;BMP280;44116;50.884;4.768;2023-05-07T11:35:57;101170.0;;;16.8
58307;BMP280;44116;50.884;4.768;2023-05-07T11:40:02;101170.0;;;16.8
58307;BMP280;44116;50.884;4.768;2023-05-07T11:41:56;101170.0;;;16.8
58307;BMP280;44116;50.884;4.768;2023-05-07T11:43:56;101170.0;;;16.8
58307;BMP280;44116;50.884;4.768;2023-05-07T11:46:04;101160.0;;;16.8
58307;BMP280;44116;50.884;4.768;2023-05-07T11:47:56;101160.0;;;16.9
58307;BMP280;44116;50.884;4.768;2023-05-07T11:49:56;101160.0;;;16.8
58307;BMP280;44116;50.884;4.768;2023-05-07T11:51:56;101160.0;;;17.0
58307;BMP280;44116;50.884;4.768;2023-05-07T11:53:56;101160.0;;;17.0
58307;BMP280;44116;50.884;4.768;2023-05-07T11:57:56;101170.0;;;17.0
58307;BMP280;44116;50.884;4.768;2023-05-07T12:01:37;101170.0;;;16.8
58307;BMP280;44116;50.884;4.768;2023-05-07T12:01:56;101170.0;;;16.8
58307;BMP280;44116;50.884;4.768;2023-05-07T12:03:55;101170.0;;;16.9
58307;BMP280;44116;50.884;4.768;2023-05-07T12:07:56;101170.0;;;16.9
58307;BMP280;44116;50.884;4.768;2023-05-07T12:11:55;101180.0;;;17.0
58307;BMP280;44116;50.884;4.768;2023-05-07T12:13:55;101180.0;;;17.1
58307;BMP280;44116;50.884;4.768;2023-05-07T12:15:55;101180.0;;;17.2
58307;BMP280;44116;50.884;4.768;2023-05-07T12:17:55;101180.0;;;17.2
58307;BMP280;44116;50.884;4.768;2023-05-07T12:19:55;101180.0;;;17.2
58307;BMP280;44116;50.884;4.768;2023-05-07T12:21:55;101190.0;;;17.3
58307;BMP280;44116;50.884;4.768;2023-05-07T12:23:55;101190.0;;;17.3
58307;BMP280;44116;50.884;4.768;2023-05-07T12:25:55;101190.0;;;17.3
58307;BMP280;44116;50.884;4.768;2023-05-07T12:27:55;101190.0;;;17.3
58307;BMP280;44116;50.884;4.768;2023-05-07T12:29:56;101190.0;;;17.4
58307;BMP280;44116;50.884;4.768;2023-05-07T12:31:55;101190.0;;;17.4
58307;BMP280;44116;50.884;4.768;2023-05-07T12:33:54;101200.0;;;17.4
58307;BMP280;44116;50.884;4.768;2023-05-07T12:35:55;101190.0;;;17.3
58307;BMP280;44116;50.884;4.768;2023-05-07T12:37:55;101200.0;;;16.8
58307;BMP280;44116;50.884;4.768;2023-05-07T12:41:54;101200.0;;;17.0
58307;BMP280;44116;50.884;4.768;2023-05-07T12:43:56;101200.0;;;17.1
58307;BMP280;44116;50.884;4.768;2023-05-07T12:45:54;101200.0;;;17.2
58307;BMP280;44116;50.884;4.768;2023-05-07T12:47:54;101190.0;;;17.3
58307;BMP280;44116;50.884;4.768;2023-05-07T12:49:54;101200.0;;;17.4
58307;BMP280;44116;50.884;4.768;2023-05-07T12:51:54;101200.0;;;17.4
58307;BMP280;44116;50.884;4.768;2023-05-07T12:53:55;101200.0;;;17.3
58307;BMP280;44116;50.884;4.768;2023-05-07T12:55:55;101200.0;;;17.5
58307;BMP280;44116;50.884;4.768;2023-05-07T13:01:54;101210.0;;;17.2
58307;BMP280;44116;50.884;4.768;2023-05-07T13:03:54;101210.0;;;17.2
58307;BMP280;44116;50.884;4.768;2023-05-07T13:05:54;101210.0;;;17.2
58307;BMP280;44116;50.884;4.768;2023-05-07T13:07:54;101210.0;;;17.3
58307;BMP280;44116;50.884;4.768;2023-05-07T13:11:53;101200.0;;;17.5
58307;BMP280;44116;50.884;4.768;2023-05-07T13:13:53;101200.0;;;17.6
58307;BMP280;44116;50.884;4.768;2023-05-07T13:15:53;101200.0;;;17.6
58307;BMP280;44116;50.884;4.768;2023-05-07T13:17:53;101210.0;;;17.5
58307;BMP280;44116;50.884;4.768;2023-05-07T13:19:53;101210.0;;;17.4
58307;BMP280;44116;50.884;4.768;2023-05-07T13:21:53;101210.0;;;17.5
58307;BMP280;44116;50.884;4.768;2023-05-07T13:23:53;101210.0;;;17.4
58307;BMP280;44116;50.884;4.768;2023-05-07T13:25:53;101210.0;;;17.4